createdAt,value
2022-09-26T00:01:07.304Z,9.20
2022-09-26T00:03:35.683Z,9.90
2022-09-26T00:06:04.153Z,8.50
2022-09-26T00:08:34.626Z,9.10
2022-09-26T00:11:07.697Z,7.00
2022-09-26T00:13:38.033Z,6.30
2022-09-26T00:16:06.579Z,6.22
2022-09-26T00:18:35.114Z,6.90
2022-09-26T00:21:07.305Z,6.05
2022-09-26T00:23:37.010Z,6.28
2022-09-26T00:26:05.811Z,6.38
2022-09-26T00:28:34.407Z,5.78
2022-09-26T00:31:05.369Z,5.82
2022-09-26T00:33:33.774Z,5.38
2022-09-26T00:36:02.193Z,4.70
2022-09-26T00:38:30.363Z,4.28
2022-09-26T00:40:59.862Z,4.28
2022-09-26T00:43:33.740Z,4.13
2022-09-26T00:46:05.981Z,4.13
2022-09-26T00:48:37.227Z,5.18
2022-09-26T00:51:05.781Z,4.70
2022-09-26T00:53:39.005Z,5.55
2022-09-26T00:56:13.146Z,4.60
2022-09-26T00:58:47.167Z,4.93
2022-09-26T01:01:15.922Z,4.40
2022-09-26T01:03:46.569Z,4.03
2022-09-26T01:06:15.651Z,4.07
2022-09-26T01:08:49.067Z,4.40
2022-09-26T01:11:19.233Z,4.22
2022-09-26T01:13:47.700Z,4.70
2022-09-26T01:16:15.694Z,4.38
2022-09-26T01:18:44.677Z,5.20
2022-09-26T01:21:41.973Z,5.25
2022-09-26T01:24:41.900Z,5.43
2022-09-26T01:27:30.101Z,6.05
2022-09-26T01:30:18.337Z,5.30
2022-09-26T01:33:18.200Z,5.35
2022-09-26T01:35:58.858Z,5.38
2022-09-26T01:38:37.833Z,5.13
2022-09-26T01:41:17.010Z,4.45
2022-09-26T01:43:52.543Z,5.07
2022-09-26T01:46:29.818Z,5.57
2022-09-26T01:49:05.051Z,5.25
2022-09-26T01:51:42.436Z,5.00
2022-09-26T01:54:15.109Z,5.32
2022-09-26T01:56:44.560Z,4.68
2022-09-26T01:59:18.887Z,4.72
2022-09-26T02:01:52.219Z,5.38
2022-09-26T02:04:25.288Z,5.05
2022-09-26T02:06:56.265Z,5.35
2022-09-26T02:09:28.306Z,5.70
2022-09-26T02:12:00.701Z,5.03
2022-09-26T02:14:33.058Z,5.20
2022-09-26T02:17:06.852Z,5.32
2022-09-26T02:19:40.559Z,5.43
2022-09-26T02:22:08.674Z,6.28
2022-09-26T02:24:36.778Z,6.45
2022-09-26T02:27:06.852Z,5.68
2022-09-26T02:29:35.378Z,5.95
2022-09-26T02:32:12.832Z,5.40
2022-09-26T02:34:42.507Z,6.40
2022-09-26T02:37:13.471Z,5.90
2022-09-26T02:39:42.805Z,6.45
2022-09-26T02:42:21.897Z,6.60
2022-09-26T02:45:05.445Z,6.20
2022-09-26T02:47:51.449Z,5.88
2022-09-26T02:50:39.946Z,6.18
2022-09-26T02:53:18.875Z,6.10
2022-09-26T02:55:52.874Z,6.18
2022-09-26T02:58:36.505Z,6.40
2022-09-26T03:01:11.887Z,6.07
2022-09-26T03:03:46.077Z,6.32
2022-09-26T03:06:18.358Z,6.43
2022-09-26T03:08:49.381Z,6.85
2022-09-26T03:11:21.714Z,7.10
2022-09-26T03:13:53.410Z,6.68
2022-09-26T03:16:23.792Z,6.25
2022-09-26T03:18:56.615Z,6.10
2022-09-26T03:21:25.075Z,6.05
2022-09-26T03:23:52.922Z,5.80
2022-09-26T03:26:24.756Z,5.53
2022-09-26T03:28:53.888Z,5.28
2022-09-26T03:31:22.329Z,5.03
2022-09-26T03:33:50.435Z,5.05
2022-09-26T03:36:20.260Z,4.70
2022-09-26T03:38:48.107Z,4.70
2022-09-26T03:41:16.105Z,4.70
2022-09-26T03:43:44.341Z,4.35
2022-09-26T03:46:13.171Z,3.70
2022-09-26T03:48:41.188Z,3.80
2022-09-26T03:51:11.058Z,4.20
2022-09-26T03:53:43.423Z,4.03
2022-09-26T03:56:12.993Z,3.38
2022-09-26T03:58:40.906Z,3.70
2022-09-26T04:01:11.830Z,3.10
2022-09-26T04:03:45.171Z,3.35
2022-09-26T04:06:20.222Z,3.28
2022-09-26T04:08:52.367Z,3.40
2022-09-26T04:11:22.235Z,3.60
2022-09-26T04:13:52.765Z,3.60
2022-09-26T04:16:22.858Z,3.50
2022-09-26T04:18:51.449Z,3.20
2022-09-26T04:21:19.294Z,3.67
2022-09-26T04:23:47.159Z,3.35
2022-09-26T04:26:22.907Z,3.22
2022-09-26T04:28:55.005Z,3.83
2022-09-26T04:31:24.383Z,4.13
2022-09-26T04:33:52.412Z,3.95
2022-09-26T04:36:20.307Z,3.38
2022-09-26T04:38:49.113Z,3.63
2022-09-26T04:41:20.535Z,3.63
2022-09-26T04:43:49.021Z,3.65
2022-09-26T04:46:22.234Z,3.45
2022-09-26T04:48:52.971Z,3.53
2022-09-26T04:51:23.246Z,3.70
2022-09-26T04:53:51.976Z,3.33
2022-09-26T04:56:23.405Z,3.40
2022-09-26T04:58:51.719Z,3.50
2022-09-26T05:01:21.386Z,3.80
2022-09-26T05:03:49.659Z,3.88
2022-09-26T05:06:18.605Z,3.55
2022-09-26T05:08:48.533Z,3.42
2022-09-26T05:11:18.797Z,4.00
2022-09-26T05:13:53.677Z,4.20
2022-09-26T05:16:22.816Z,3.88
2022-09-26T05:18:51.784Z,3.45
2022-09-26T05:21:20.151Z,3.83
2022-09-26T05:24:02.095Z,3.65
2022-09-26T05:26:39.380Z,3.90
2022-09-26T05:29:09.523Z,3.90
2022-09-26T05:31:38.442Z,4.60
2022-09-26T05:34:07.685Z,3.85
2022-09-26T05:36:35.989Z,4.03
2022-09-26T05:39:04.605Z,4.32
2022-09-26T05:41:33.785Z,4.32
2022-09-26T05:44:02.118Z,3.53
2022-09-26T05:46:34.362Z,3.97
2022-09-26T05:49:02.268Z,4.15
2022-09-26T05:51:30.048Z,4.25
2022-09-26T05:53:58.221Z,4.55
2022-09-26T05:56:26.151Z,3.97
2022-09-26T05:58:55.061Z,3.88
2022-09-26T06:01:23.214Z,4.18
2022-09-26T06:03:52.454Z,3.80
2022-09-26T06:06:21.369Z,3.80
2022-09-26T06:08:50.206Z,4.63
2022-09-26T06:11:20.922Z,4.85
2022-09-26T06:13:48.797Z,5.80
2022-09-26T06:16:19.544Z,5.78
2022-09-26T06:18:49.184Z,6.35
2022-09-26T06:21:20.267Z,6.45
2022-09-26T06:23:48.611Z,6.63
2022-09-26T06:26:20.538Z,7.13
2022-09-26T06:28:50.089Z,7.30
2022-09-26T06:31:20.007Z,7.05
2022-09-26T06:33:51.657Z,7.32
2022-09-26T06:36:22.488Z,7.68
2022-09-26T06:38:51.057Z,8.07
2022-09-26T06:41:19.540Z,7.10
2022-09-26T06:43:49.186Z,6.72
2022-09-26T06:46:17.674Z,6.60
2022-09-26T06:48:45.796Z,5.95
2022-09-26T06:51:15.330Z,5.97
2022-09-26T06:53:46.015Z,7.00
2022-09-26T06:56:15.001Z,7.72
2022-09-26T06:58:43.068Z,7.40
2022-09-26T07:01:11.882Z,6.47
2022-09-26T07:03:45.163Z,7.60
2022-09-26T07:06:14.070Z,7.68
2022-09-26T07:11:42.010Z,8.95
2022-09-26T07:14:20.340Z,8.02
2022-09-26T07:16:49.869Z,9.27
2022-09-26T07:19:18.674Z,10.68
2022-09-26T07:21:47.024Z,9.35
2022-09-26T07:24:15.156Z,10.18
2022-09-26T07:26:45.027Z,10.45
2022-09-26T07:29:12.928Z,10.55
2022-09-26T07:31:40.947Z,9.63
2022-09-26T07:34:09.040Z,8.65
2022-09-26T07:36:37.459Z,9.43
2022-09-26T07:39:05.516Z,9.40
2022-09-26T07:41:33.522Z,10.32
2022-09-26T07:47:08.535Z,10.73
2022-09-26T07:49:53.893Z,9.77
2022-09-26T07:52:22.700Z,11.55
2022-09-26T07:54:51.388Z,11.07
2022-09-26T07:57:19.511Z,11.18
2022-09-26T07:59:50.593Z,11.85
2022-09-26T08:02:25.899Z,11.05
2022-09-26T08:05:00.234Z,10.40
2022-09-26T08:07:29.911Z,9.63
2022-09-26T08:09:58.825Z,7.70
2022-09-26T08:12:27.975Z,7.72
2022-09-26T08:14:57.246Z,7.50
2022-09-26T08:17:25.213Z,9.25
2022-09-26T08:19:53.027Z,8.63
2022-09-26T08:22:20.982Z,7.72
2022-09-26T08:24:50.409Z,8.88
2022-09-26T08:27:18.430Z,9.85
2022-09-26T08:29:48.748Z,10.40
2022-09-26T08:32:18.939Z,9.50
2022-09-26T08:34:47.713Z,8.70
2022-09-26T08:37:16.125Z,8.73
2022-09-26T08:39:44.110Z,7.22
2022-09-26T08:42:34.718Z,8.30
2022-09-26T08:45:55.409Z,6.05
2022-09-26T08:48:42.636Z,5.55
2022-09-26T08:51:19.345Z,4.70
2022-09-26T08:53:54.222Z,5.28
2022-09-26T08:56:40.393Z,4.38
2022-09-26T08:59:15.149Z,4.10
2022-09-26T09:01:46.775Z,4.18
2022-09-26T09:04:22.037Z,4.22
2022-09-26T09:06:56.125Z,3.83
2022-09-26T09:09:24.229Z,4.00
2022-09-26T09:12:06.280Z,3.85
2022-09-26T09:15:13.747Z,6.32
2022-09-26T09:17:50.789Z,4.60
2022-09-26T09:20:29.785Z,4.82
2022-09-26T09:23:20.508Z,4.10
2022-09-26T09:25:55.303Z,4.25
2022-09-26T09:28:36.989Z,4.18
2022-09-26T09:31:10.261Z,3.70
2022-09-26T09:33:41.498Z,4.57
2022-09-26T09:36:15.134Z,4.32
2022-09-26T09:38:46.994Z,3.85
2022-09-26T09:41:19.100Z,3.30
2022-09-26T09:43:49.538Z,4.68
2022-09-26T09:46:23.209Z,5.45
2022-09-26T09:48:54.774Z,5.00
2022-09-26T09:51:39.292Z,5.53
2022-09-26T09:54:25.166Z,3.60
2022-09-26T09:57:09.929Z,3.60
2022-09-26T09:59:57.992Z,4.20
2022-09-26T10:02:37.606Z,3.88
2022-09-26T10:05:24.423Z,6.72
2022-09-26T10:07:58.190Z,5.47
2022-09-26T10:10:35.896Z,5.53
2022-09-26T10:13:06.280Z,4.55
2022-09-26T10:15:36.965Z,3.90
2022-09-26T10:18:24.067Z,8.57
2022-09-26T10:20:55.682Z,6.43
2022-09-26T10:23:32.903Z,6.72
2022-09-26T10:26:03.679Z,7.80
2022-09-26T10:28:35.922Z,6.55
2022-09-26T10:31:07.567Z,5.30
2022-09-26T10:33:37.217Z,5.07
2022-09-26T10:36:18.365Z,5.00
2022-09-26T10:39:11.138Z,5.05
2022-09-26T10:41:45.180Z,6.10
2022-09-26T10:44:24.585Z,6.10
2022-09-26T10:46:56.538Z,5.50
2022-09-26T10:49:31.361Z,5.85
2022-09-26T10:52:08.407Z,5.93
2022-09-26T10:54:42.504Z,5.22
2022-09-26T10:57:24.346Z,5.72
2022-09-26T10:59:54.393Z,6.40
2022-09-26T11:02:25.394Z,6.40
2022-09-26T11:05:15.187Z,6.90
2022-09-26T11:07:47.468Z,6.75
2022-09-26T11:10:24.881Z,4.28
2022-09-26T11:13:02.408Z,5.13
2022-09-26T11:15:31.236Z,6.00
2022-09-26T11:17:59.234Z,6.07
2022-09-26T11:20:43.796Z,5.50
2022-09-26T11:23:20.903Z,5.65
2022-09-26T11:25:58.301Z,6.10
2022-09-26T11:28:31.497Z,5.53
2022-09-26T11:31:06.252Z,5.97
2022-09-26T11:33:35.379Z,5.10
2022-09-26T11:36:18.865Z,4.20
2022-09-26T11:38:48.688Z,3.45
2022-09-26T11:41:39.022Z,3.20
2022-09-26T11:44:35.685Z,2.78
2022-09-26T11:47:30.743Z,2.83
2022-09-26T11:50:23.672Z,3.42
2022-09-26T11:53:02.247Z,3.47
2022-09-26T11:55:38.817Z,4.15
2022-09-26T11:58:17.954Z,3.55
2022-09-26T12:00:56.954Z,3.30
2022-09-26T12:03:57.288Z,3.15
2022-09-26T12:06:33.665Z,3.38
2022-09-26T12:09:25.372Z,3.35
2022-09-26T12:12:04.131Z,3.63
2022-09-26T12:14:45.939Z,3.75
2022-09-26T12:17:21.949Z,3.08
2022-09-26T12:19:59.134Z,3.22
2022-09-26T12:22:36.165Z,3.08
2022-09-26T12:25:42.066Z,3.10
2022-09-26T12:28:25.614Z,2.80
2022-09-26T12:31:08.949Z,3.10
2022-09-26T12:33:55.422Z,3.38
2022-09-26T12:36:39.958Z,3.20
2022-09-26T12:39:22.302Z,3.13
2022-09-26T12:42:05.129Z,2.92
2022-09-26T12:44:47.640Z,3.60
2022-09-26T12:47:34.959Z,2.80
2022-09-26T12:50:17.146Z,3.30
2022-09-26T12:53:15.874Z,2.92
2022-09-26T12:55:50.137Z,3.05
2022-09-26T12:58:33.125Z,3.22
2022-09-26T13:01:30.102Z,3.20
2022-09-26T13:04:18.395Z,2.85
2022-09-26T13:07:18.730Z,2.65
2022-09-26T13:10:06.809Z,2.78
2022-09-26T13:12:51.169Z,3.20
2022-09-26T13:15:27.320Z,2.10
2022-09-26T13:17:59.485Z,1.83
2022-09-26T13:20:38.125Z,2.17
2022-09-26T13:23:12.326Z,2.13
2022-09-26T13:25:49.767Z,2.25
2022-09-26T13:28:21.527Z,2.40
2022-09-26T13:30:54.933Z,2.00
2022-09-26T13:33:29.362Z,1.83
2022-09-26T13:36:01.502Z,2.10
2022-09-26T13:38:41.403Z,1.92
2022-09-26T13:41:24.325Z,2.15
2022-09-26T13:44:03.614Z,2.30
2022-09-26T13:46:44.265Z,2.35
2022-09-26T13:49:27.761Z,1.90
2022-09-26T13:52:14.038Z,2.00
2022-09-26T13:54:56.373Z,1.83
2022-09-26T13:57:40.155Z,2.25
2022-09-26T14:00:40.870Z,2.38
2022-09-26T14:03:43.372Z,1.90
2022-09-26T14:06:32.024Z,2.25
2022-09-26T14:09:25.212Z,2.50
2022-09-26T14:12:32.354Z,2.25
2022-09-26T14:15:21.184Z,2.15
2022-09-26T14:18:15.431Z,2.25
2022-09-26T14:21:05.242Z,2.00
2022-09-26T14:23:40.048Z,2.55
2022-09-26T14:26:12.503Z,2.28
2022-09-26T14:28:47.717Z,2.20
2022-09-26T14:31:42.787Z,2.30
2022-09-26T14:34:20.725Z,2.60
2022-09-26T14:36:49.925Z,2.38
2022-09-26T14:39:41.025Z,2.58
2022-09-26T14:42:20.829Z,2.30
2022-09-26T14:44:59.682Z,2.38
2022-09-26T14:47:31.734Z,2.10
2022-09-26T14:50:05.628Z,2.63
2022-09-26T14:52:35.499Z,2.40
2022-09-26T14:55:07.606Z,2.25
2022-09-26T14:57:39.024Z,2.70
2022-09-26T15:00:40.483Z,2.47
2022-09-26T15:03:15.738Z,2.15
2022-09-26T15:05:45.089Z,2.10
2022-09-26T15:08:27.400Z,2.10
2022-09-26T15:10:57.309Z,2.70
2022-09-26T15:13:34.199Z,2.50
2022-09-26T15:16:24.499Z,2.65
2022-09-26T15:18:56.723Z,2.72
2022-09-26T15:21:33.938Z,2.10
2022-09-26T15:24:05.963Z,2.20
2022-09-26T15:26:36.869Z,1.80
2022-09-26T15:29:10.104Z,2.38
2022-09-26T15:31:40.798Z,2.60
2022-09-26T15:34:16.447Z,2.55
2022-09-26T15:36:45.956Z,2.35
2022-09-26T15:39:38.937Z,2.35
2022-09-26T15:42:54.418Z,2.00
2022-09-26T15:45:30.413Z,2.35
2022-09-26T15:48:00.081Z,2.40
2022-09-26T15:50:33.034Z,2.55
2022-09-26T15:53:06.901Z,2.17
2022-09-26T15:55:38.903Z,4.38
2022-09-26T15:58:08.821Z,2.45
2022-09-26T16:00:47.292Z,2.97
2022-09-26T16:03:55.752Z,2.72
2022-09-26T16:06:30.060Z,2.80
2022-09-26T16:09:10.295Z,2.63
2022-09-26T16:11:47.704Z,2.60
2022-09-26T16:14:26.889Z,2.80
2022-09-26T16:17:02.709Z,2.75
2022-09-26T16:19:35.036Z,3.10
2022-09-26T16:22:36.530Z,2.90
2022-09-26T16:25:37.090Z,2.75
2022-09-26T16:28:23.430Z,2.60
2022-09-26T16:31:11.107Z,3.58
2022-09-26T16:33:41.575Z,2.90
2022-09-26T16:36:18.732Z,3.88
2022-09-26T16:38:53.097Z,2.72
2022-09-26T16:41:56.422Z,3.65
2022-09-26T16:44:27.351Z,2.40
2022-09-26T16:46:58.940Z,1.92
2022-09-26T16:49:40.031Z,2.15
2022-09-26T16:52:29.894Z,2.05
2022-09-26T16:54:59.638Z,2.03
2022-09-26T16:57:30.148Z,2.10
2022-09-26T17:00:15.224Z,1.98
2022-09-26T17:02:43.577Z,2.75
2022-09-26T17:05:18.800Z,1.23
2022-09-26T17:07:47.718Z,1.90
2022-09-26T17:10:16.481Z,2.13
2022-09-26T17:12:53.138Z,2.10
2022-09-26T17:15:28.564Z,1.90
2022-09-26T17:17:57.289Z,1.63
2022-09-26T17:20:26.876Z,2.08
2022-09-26T17:22:55.766Z,2.10
2022-09-26T17:25:25.313Z,2.78
2022-09-26T17:27:57.714Z,2.50
2022-09-26T17:30:25.636Z,2.25
2022-09-26T17:32:54.909Z,2.20
2022-09-26T17:35:32.697Z,2.60
2022-09-26T17:38:01.512Z,2.15
2022-09-26T17:40:31.209Z,2.15
2022-09-26T17:43:04.757Z,2.63
2022-09-26T17:45:35.284Z,2.58
2022-09-26T17:48:06.986Z,2.40
2022-09-26T17:50:36.976Z,2.60
2022-09-26T17:53:07.912Z,2.28
2022-09-26T17:55:35.906Z,2.45
2022-09-26T17:58:09.566Z,2.85
2022-09-26T18:00:38.874Z,2.30
2022-09-26T18:03:08.633Z,2.30
2022-09-26T18:05:39.697Z,2.25
2022-09-26T18:08:15.322Z,2.80
2022-09-26T18:10:49.762Z,2.80
2022-09-26T18:13:26.592Z,2.40
2022-09-26T18:15:55.611Z,2.72
2022-09-26T18:18:25.118Z,2.45
2022-09-26T18:20:57.673Z,2.42
2022-09-26T18:23:29.169Z,2.40
2022-09-26T18:25:59.562Z,2.22
2022-09-26T18:28:27.918Z,2.60
2022-09-26T18:30:59.191Z,2.85
2022-09-26T18:33:29.257Z,2.72
2022-09-26T18:35:58.898Z,2.30
2022-09-26T18:38:26.751Z,2.40
2022-09-26T18:40:58.351Z,2.42
2022-09-26T18:43:31.706Z,3.10
2022-09-26T18:46:00.167Z,2.63
2022-09-26T18:48:31.674Z,2.58
2022-09-26T18:51:01.752Z,2.40
2022-09-26T18:53:37.057Z,2.92
2022-09-26T18:56:22.683Z,2.90
2022-09-26T18:58:50.512Z,2.50
2022-09-26T19:01:26.907Z,2.35
2022-09-26T19:03:55.633Z,2.58
2022-09-26T19:06:29.867Z,2.40
2022-09-26T19:09:00.285Z,2.33
2022-09-26T19:11:32.038Z,2.83
2022-09-26T19:14:03.173Z,2.58
2022-09-26T19:16:31.081Z,2.80
2022-09-26T19:18:59.336Z,2.60
2022-09-26T19:21:32.257Z,3.03
2022-09-26T19:24:05.238Z,2.95
2022-09-26T19:26:37.638Z,3.00
2022-09-26T19:29:11.888Z,2.85
2022-09-26T19:31:40.211Z,3.13
2022-09-26T19:34:10.535Z,3.60
2022-09-26T19:36:39.733Z,3.55
2022-09-26T19:39:11.595Z,3.28
2022-09-26T19:41:39.768Z,4.03
2022-09-26T19:44:08.362Z,3.65
2022-09-26T19:46:39.018Z,3.30
2022-09-26T19:49:07.886Z,4.07
2022-09-26T19:51:40.914Z,3.88
2022-09-26T19:54:15.625Z,3.50
2022-09-26T19:56:44.350Z,3.85
2022-09-26T19:59:12.844Z,3.67
2022-09-26T20:01:42.388Z,3.70
2022-09-26T20:04:16.048Z,3.40
2022-09-26T20:06:45.482Z,3.70
2022-09-26T20:09:19.419Z,3.60
2022-09-26T20:11:47.518Z,3.65
2022-09-26T20:14:27.427Z,3.20
2022-09-26T20:16:58.427Z,3.60
2022-09-26T20:19:33.359Z,3.47
2022-09-26T20:22:05.391Z,3.25
2022-09-26T20:24:34.712Z,3.28
2022-09-26T20:27:04.601Z,3.50
2022-09-26T20:29:53.194Z,3.60
2022-09-26T20:32:21.133Z,3.47
2022-09-26T20:34:49.557Z,3.20
2022-09-26T20:37:19.961Z,3.85
2022-09-26T20:39:48.088Z,3.75
2022-09-26T20:42:18.843Z,3.53
2022-09-26T20:44:51.014Z,3.70
2022-09-26T20:47:21.517Z,3.70
2022-09-26T20:49:53.724Z,3.80
2022-09-26T20:52:25.221Z,4.20
2022-09-26T20:54:53.734Z,4.25
2022-09-26T20:57:22.513Z,4.10
2022-09-26T20:59:50.545Z,3.97
2022-09-26T21:02:26.830Z,4.10
2022-09-26T21:04:55.394Z,3.83
2022-09-26T21:07:25.469Z,4.10
2022-09-26T21:09:53.393Z,3.97
2022-09-26T21:12:21.232Z,4.20
2022-09-26T21:14:49.276Z,4.13
2022-09-26T21:17:20.214Z,4.10
2022-09-26T21:19:48.981Z,4.35
2022-09-26T21:22:16.930Z,4.45
2022-09-26T21:24:49.278Z,4.57
2022-09-26T21:27:17.419Z,4.75
2022-09-26T21:29:45.586Z,4.68
2022-09-26T21:32:18.441Z,4.80
2022-09-26T21:34:52.847Z,4.65
2022-09-26T21:37:20.906Z,4.55
2022-09-26T21:39:50.494Z,4.10
2022-09-26T21:42:18.361Z,4.38
2022-09-26T21:44:49.364Z,4.63
2022-09-26T21:47:17.669Z,4.47
2022-09-26T21:49:46.962Z,4.90
2022-09-26T21:52:20.329Z,5.00
2022-09-26T21:54:48.337Z,4.30
2022-09-26T21:57:22.462Z,5.00
2022-09-26T21:59:52.813Z,4.90
2022-09-26T22:02:21.560Z,5.43
2022-09-26T22:04:49.694Z,5.50
2022-09-26T22:07:17.512Z,5.75
2022-09-26T22:09:45.769Z,6.40
2022-09-26T22:12:13.898Z,5.85
2022-09-26T22:14:43.138Z,5.70
2022-09-26T22:17:11.271Z,6.28
2022-09-26T22:19:39.291Z,6.13
2022-09-26T22:22:07.369Z,6.13
2022-09-26T22:24:35.608Z,6.80
2022-09-26T22:27:03.654Z,6.13
2022-09-26T22:29:31.622Z,6.65
2022-09-26T22:32:01.380Z,6.68
2022-09-26T22:34:29.413Z,6.85
2022-09-26T22:36:57.204Z,6.30
2022-09-26T22:39:25.129Z,6.00
2022-09-26T22:41:53.135Z,6.25
2022-09-26T22:44:21.222Z,6.18
2022-09-26T22:46:49.106Z,6.53
2022-09-26T22:49:18.580Z,6.18
2022-09-26T22:51:46.432Z,6.10
2022-09-26T22:54:14.395Z,5.63
2022-09-26T22:56:42.406Z,5.72
2022-09-26T22:59:11.095Z,6.32
2022-09-26T23:01:39.395Z,6.30
2022-09-26T23:04:07.572Z,6.40
2022-09-26T23:06:36.851Z,6.65
2022-09-26T23:09:05.060Z,5.93
2022-09-26T23:11:32.997Z,6.43
2022-09-26T23:14:00.847Z,6.05
2022-09-26T23:16:29.001Z,6.65
2022-09-26T23:18:57.204Z,5.65
2022-09-26T23:21:26.856Z,5.32
2022-09-26T23:23:57.821Z,5.22
2022-09-26T23:26:28.613Z,5.20
2022-09-26T23:28:58.014Z,5.15
2022-09-26T23:31:26.906Z,5.10
2022-09-26T23:33:55.217Z,5.30
2022-09-26T23:36:23.411Z,5.00
2022-09-26T23:38:51.296Z,4.72
2022-09-26T23:41:20.909Z,4.95
2022-09-26T23:43:48.838Z,5.18
2022-09-26T23:46:17.451Z,4.85
2022-09-26T23:48:45.482Z,4.53
2022-09-26T23:51:13.407Z,3.78
2022-09-26T23:53:41.341Z,3.95
2022-09-26T23:56:11.212Z,4.18
2022-09-26T23:58:40.461Z,3.97
